KLMO

Details ICAO KLMO
Name VANCE BRAND
Region United States
Timezone America/Denver (UTC-7.0)
Plans Departing 7
Arriving 6
Stats Elevation 5,052 ft / 1,540 m (AMSL)
Location 40.163255° -105.164892°
Runways 2
Magnetic Variation 8.346° E
Sunrise 2017-12-13 14:16:05 UTC / 2017-12-13 07:16:05 Local
Sunset 2017-12-13 23:36:45 UTC / 2017-12-13 16:36:45 Local
Advertisement - Login to hide

Runways

ID Width Length Bearing (true) Bearing (mag) Surface Threshold Offset Overrun Length
11 75 ft / 23 m 4,794 ft / 1,461 m 122.75° 114.40° Concrete 0 ft / 0 m 0 ft / 0 m
11R 55 ft / 17 m 1,415 ft / 431 m 127.32° 118.97° Dirt 0 ft / 0 m 0 ft / 0 m
29 75 ft / 23 m 4,794 ft / 1,461 m 302.76° 294.41° Concrete 0 ft / 0 m 0 ft / 0 m
29L 55 ft / 17 m 1,415 ft / 431 m 307.32° 298.97° Dirt 0 ft / 0 m 0 ft / 0 m

Map

Weather


0- 5 10 15 20 25 30 35+ Temperature / ° C

Clouds and Precipitation
Forecast for 2017-12-13 12:00 UTC. Updated 37 minutes ago

Ground ~20,000 ft ~40,000 ft Winds

METAR

KLMO 130735Z AUTO 21004KT 10SM CLR 05/M13 A3005 RMK AO2 T00451126

TAF

Not found

Frequencies

Recorded 120.00 MHz AWOS 3
Approach 126.10 MHz DENVER APP/DEP
Unicom 122.97 MHz CTAF/UNICOM
Warning: Do not use this data for real-world aviation or navigation. No guarantee of current accuracy is given.